sensor_id;sensor_type;location;lat;lon;timestamp;temperature;humidity
28530;DHT22;15737;49.760;6.632;2023-06-04T00:01:07;13.40;62.50
28530;DHT22;15737;49.760;6.632;2023-06-04T00:03:34;13.40;63.00
28530;DHT22;15737;49.760;6.632;2023-06-04T00:05:59;13.60;62.60
28530;DHT22;15737;49.760;6.632;2023-06-04T00:08:25;13.80;62.20
28530;DHT22;15737;49.760;6.632;2023-06-04T00:10:51;13.90;61.60
28530;DHT22;15737;49.760;6.632;2023-06-04T00:13:16;13.90;61.20
28530;DHT22;15737;49.760;6.632;2023-06-04T00:15:42;14.00;61.10
28530;DHT22;15737;49.760;6.632;2023-06-04T00:18:08;14.10;61.00
28530;DHT22;15737;49.760;6.632;2023-06-04T00:20:33;13.90;61.20
28530;DHT22;15737;49.760;6.632;2023-06-04T00:22:59;13.60;61.70
28530;DHT22;15737;49.760;6.632;2023-06-04T00:25:24;13.40;62.70
28530;DHT22;15737;49.760;6.632;2023-06-04T00:27:51;13.20;63.10
28530;DHT22;15737;49.760;6.632;2023-06-04T00:30:16;13.10;63.30
28530;DHT22;15737;49.760;6.632;2023-06-04T00:32:42;13.00;63.50
28530;DHT22;15737;49.760;6.632;2023-06-04T00:35:07;13.00;63.50
28530;DHT22;15737;49.760;6.632;2023-06-04T00:37:34;13.10;63.40
28530;DHT22;15737;49.760;6.632;2023-06-04T00:40:00;13.00;63.40
28530;DHT22;15737;49.760;6.632;2023-06-04T00:42:26;13.00;63.50
28530;DHT22;15737;49.760;6.632;2023-06-04T00:44:51;12.90;63.70
28530;DHT22;15737;49.760;6.632;2023-06-04T00:47:18;12.90;63.70
28530;DHT22;15737;49.760;6.632;2023-06-04T00:49:45;12.90;63.50
28530;DHT22;15737;49.760;6.632;2023-06-04T00:52:14;12.90;63.50
28530;DHT22;15737;49.760;6.632;2023-06-04T00:54:39;12.80;63.60
28530;DHT22;15737;49.760;6.632;2023-06-04T00:57:06;12.70;64.00
28530;DHT22;15737;49.760;6.632;2023-06-04T00:59:33;12.50;64.70
28530;DHT22;15737;49.760;6.632;2023-06-04T01:02:03;12.40;64.90
28530;DHT22;15737;49.760;6.632;2023-06-04T01:04:36;12.40;65.10
28530;DHT22;15737;49.760;6.632;2023-06-04T01:07:04;12.40;65.30
28530;DHT22;15737;49.760;6.632;2023-06-04T01:09:30;12.40;65.00
28530;DHT22;15737;49.760;6.632;2023-06-04T01:11:56;12.40;65.00
28530;DHT22;15737;49.760;6.632;2023-06-04T01:14:27;12.60;64.70
28530;DHT22;15737;49.760;6.632;2023-06-04T01:17:07;12.70;64.30
28530;DHT22;15737;49.760;6.632;2023-06-04T01:19:57;12.70;63.90
28530;DHT22;15737;49.760;6.632;2023-06-04T01:25:15;12.80;63.50
28530;DHT22;15737;49.760;6.632;2023-06-04T01:27:51;12.80;63.60
28530;DHT22;15737;49.760;6.632;2023-06-04T01:30:23;12.70;63.50
28530;DHT22;15737;49.760;6.632;2023-06-04T01:32:49;12.60;63.60
28530;DHT22;15737;49.760;6.632;2023-06-04T01:35:14;12.70;63.50
28530;DHT22;15737;49.760;6.632;2023-06-04T01:37:40;12.80;63.20
28530;DHT22;15737;49.760;6.632;2023-06-04T01:40:06;12.90;62.90
28530;DHT22;15737;49.760;6.632;2023-06-04T01:42:33;12.70;62.80
28530;DHT22;15737;49.760;6.632;2023-06-04T01:44:59;12.50;63.30
28530;DHT22;15737;49.760;6.632;2023-06-04T01:47:25;12.40;63.80
28530;DHT22;15737;49.760;6.632;2023-06-04T01:49:50;12.30;64.60
28530;DHT22;15737;49.760;6.632;2023-06-04T01:52:16;12.30;63.80
28530;DHT22;15737;49.760;6.632;2023-06-04T01:54:42;12.30;63.80
28530;DHT22;15737;49.760;6.632;2023-06-04T01:57:08;12.30;63.80
28530;DHT22;15737;49.760;6.632;2023-06-04T01:59:35;12.20;64.30
28530;DHT22;15737;49.760;6.632;2023-06-04T02:02:02;12.10;64.60
28530;DHT22;15737;49.760;6.632;2023-06-04T02:04:27;12.00;64.90
28530;DHT22;15737;49.760;6.632;2023-06-04T02:06:53;11.90;65.00
28530;DHT22;15737;49.760;6.632;2023-06-04T02:09:19;11.90;65.10
28530;DHT22;15737;49.760;6.632;2023-06-04T02:11:44;11.80;65.10
28530;DHT22;15737;49.760;6.632;2023-06-04T02:14:10;11.90;65.00
28530;DHT22;15737;49.760;6.632;2023-06-04T02:16:35;12.10;64.70
28530;DHT22;15737;49.760;6.632;2023-06-04T02:19:02;12.10;64.30
28530;DHT22;15737;49.760;6.632;2023-06-04T02:21:28;12.30;64.10
28530;DHT22;15737;49.760;6.632;2023-06-04T02:23:54;12.30;63.80
28530;DHT22;15737;49.760;6.632;2023-06-04T02:26:19;12.20;63.90
28530;DHT22;15737;49.760;6.632;2023-06-04T02:28:45;12.20;63.90
28530;DHT22;15737;49.760;6.632;2023-06-04T02:31:10;12.20;63.70
28530;DHT22;15737;49.760;6.632;2023-06-04T02:33:36;12.20;63.80
28530;DHT22;15737;49.760;6.632;2023-06-04T02:36:01;12.10;63.80
28530;DHT22;15737;49.760;6.632;2023-06-04T02:38:27;12.00;63.90
28530;DHT22;15737;49.760;6.632;2023-06-04T02:40:52;12.00;64.00
28530;DHT22;15737;49.760;6.632;2023-06-04T02:43:19;12.00;64.00
28530;DHT22;15737;49.760;6.632;2023-06-04T02:45:48;11.90;65.00
28530;DHT22;15737;49.760;6.632;2023-06-04T02:48:13;11.80;64.70
28530;DHT22;15737;49.760;6.632;2023-06-04T02:50:39;11.70;65.10
28530;DHT22;15737;49.760;6.632;2023-06-04T02:53:07;11.70;65.00
28530;DHT22;15737;49.760;6.632;2023-06-04T02:55:33;11.70;64.90
28530;DHT22;15737;49.760;6.632;2023-06-04T02:57:59;11.80;64.80
28530;DHT22;15737;49.760;6.632;2023-06-04T03:00:26;11.80;64.60
28530;DHT22;15737;49.760;6.632;2023-06-04T03:02:51;11.70;64.80
28530;DHT22;15737;49.760;6.632;2023-06-04T03:05:17;11.80;64.70
28530;DHT22;15737;49.760;6.632;2023-06-04T03:07:44;11.90;64.50
28530;DHT22;15737;49.760;6.632;2023-06-04T03:10:12;11.80;64.40
28530;DHT22;15737;49.760;6.632;2023-06-04T03:12:38;11.70;64.60
28530;DHT22;15737;49.760;6.632;2023-06-04T03:15:04;11.60;64.90
28530;DHT22;15737;49.760;6.632;2023-06-04T03:17:30;11.50;65.10
28530;DHT22;15737;49.760;6.632;2023-06-04T03:19:57;11.50;65.10
28530;DHT22;15737;49.760;6.632;2023-06-04T03:22:22;11.50;65.10
28530;DHT22;15737;49.760;6.632;2023-06-04T03:24:49;11.60;65.20
28530;DHT22;15737;49.760;6.632;2023-06-04T03:27:14;11.70;64.90
28530;DHT22;15737;49.760;6.632;2023-06-04T03:29:40;11.80;64.80
28530;DHT22;15737;49.760;6.632;2023-06-04T03:32:06;11.80;64.80
28530;DHT22;15737;49.760;6.632;2023-06-04T03:34:32;11.80;65.30
28530;DHT22;15737;49.760;6.632;2023-06-04T03:36:58;12.00;64.30
28530;DHT22;15737;49.760;6.632;2023-06-04T03:39:23;12.10;64.10
28530;DHT22;15737;49.760;6.632;2023-06-04T03:41:49;12.10;63.90
28530;DHT22;15737;49.760;6.632;2023-06-04T03:44:15;11.90;63.80
28530;DHT22;15737;49.760;6.632;2023-06-04T03:46:42;11.80;64.20
28530;DHT22;15737;49.760;6.632;2023-06-04T03:49:09;11.80;64.40
28530;DHT22;15737;49.760;6.632;2023-06-04T03:51:35;12.00;64.30
28530;DHT22;15737;49.760;6.632;2023-06-04T03:54:01;12.10;63.80
28530;DHT22;15737;49.760;6.632;2023-06-04T03:56:27;12.20;63.70
28530;DHT22;15737;49.760;6.632;2023-06-04T03:58:54;12.50;63.30
28530;DHT22;15737;49.760;6.632;2023-06-04T04:01:19;12.80;62.60
28530;DHT22;15737;49.760;6.632;2023-06-04T04:03:45;13.00;62.10
28530;DHT22;15737;49.760;6.632;2023-06-04T04:06:13;13.20;61.60
28530;DHT22;15737;49.760;6.632;2023-06-04T04:08:40;13.30;61.30
28530;DHT22;15737;49.760;6.632;2023-06-04T04:11:08;13.30;61.10
28530;DHT22;15737;49.760;6.632;2023-06-04T04:13:33;13.30;60.80
28530;DHT22;15737;49.760;6.632;2023-06-04T04:15:59;13.50;60.70
28530;DHT22;15737;49.760;6.632;2023-06-04T04:18:25;13.70;60.30
28530;DHT22;15737;49.760;6.632;2023-06-04T04:20:51;13.90;59.90
28530;DHT22;15737;49.760;6.632;2023-06-04T04:23:16;14.10;59.60
28530;DHT22;15737;49.760;6.632;2023-06-04T04:25:43;14.30;59.50
28530;DHT22;15737;49.760;6.632;2023-06-04T04:28:09;14.60;59.10
28530;DHT22;15737;49.760;6.632;2023-06-04T04:30:35;15.00;58.50
28530;DHT22;15737;49.760;6.632;2023-06-04T04:33:01;15.50;58.00
28530;DHT22;15737;49.760;6.632;2023-06-04T04:35:27;15.80;57.40
28530;DHT22;15737;49.760;6.632;2023-06-04T04:37:54;16.10;57.50
28530;DHT22;15737;49.760;6.632;2023-06-04T04:40:19;16.40;56.40
28530;DHT22;15737;49.760;6.632;2023-06-04T04:45:14;16.80;55.60
28530;DHT22;15737;49.760;6.632;2023-06-04T04:47:40;17.00;55.50
28530;DHT22;15737;49.760;6.632;2023-06-04T04:50:06;17.30;55.10
28530;DHT22;15737;49.760;6.632;2023-06-04T04:52:32;17.70;54.70
28530;DHT22;15737;49.760;6.632;2023-06-04T04:54:57;17.80;54.20
28530;DHT22;15737;49.760;6.632;2023-06-04T04:57:23;18.00;53.90
28530;DHT22;15737;49.760;6.632;2023-06-04T04:59:49;18.10;53.70
28530;DHT22;15737;49.760;6.632;2023-06-04T05:02:15;18.30;53.40
28530;DHT22;15737;49.760;6.632;2023-06-04T05:04:41;18.40;53.20
28530;DHT22;15737;49.760;6.632;2023-06-04T05:07:06;18.50;53.00
28530;DHT22;15737;49.760;6.632;2023-06-04T05:09:32;18.90;52.50
28530;DHT22;15737;49.760;6.632;2023-06-04T05:11:57;19.30;52.20
28530;DHT22;15737;49.760;6.632;2023-06-04T05:14:23;19.90;51.30
28530;DHT22;15737;49.760;6.632;2023-06-04T05:16:48;20.30;50.00
28530;DHT22;15737;49.760;6.632;2023-06-04T05:19:15;20.10;50.40
28530;DHT22;15737;49.760;6.632;2023-06-04T05:21:42;20.30;50.30
28530;DHT22;15737;49.760;6.632;2023-06-04T05:24:09;20.80;49.50
28530;DHT22;15737;49.760;6.632;2023-06-04T05:26:35;20.70;49.40
28530;DHT22;15737;49.760;6.632;2023-06-04T05:29:00;20.80;48.80
28530;DHT22;15737;49.760;6.632;2023-06-04T05:31:27;21.10;48.70
28530;DHT22;15737;49.760;6.632;2023-06-04T05:33:52;21.70;47.80
28530;DHT22;15737;49.760;6.632;2023-06-04T05:36:19;22.00;47.30
28530;DHT22;15737;49.760;6.632;2023-06-04T05:38:44;22.60;46.60
28530;DHT22;15737;49.760;6.632;2023-06-04T05:41:10;23.20;45.70
28530;DHT22;15737;49.760;6.632;2023-06-04T05:43:36;23.70;44.80
28530;DHT22;15737;49.760;6.632;2023-06-04T05:46:02;24.20;44.10
28530;DHT22;15737;49.760;6.632;2023-06-04T05:48:27;24.70;43.30
28530;DHT22;15737;49.760;6.632;2023-06-04T05:50:53;24.80;43.00
28530;DHT22;15737;49.760;6.632;2023-06-04T05:53:18;25.10;42.60
28530;DHT22;15737;49.760;6.632;2023-06-04T05:55:44;25.50;41.80
28530;DHT22;15737;49.760;6.632;2023-06-04T05:58:09;26.10;41.00
28530;DHT22;15737;49.760;6.632;2023-06-04T06:00:35;26.80;40.10
28530;DHT22;15737;49.760;6.632;2023-06-04T06:03:00;27.70;38.40
28530;DHT22;15737;49.760;6.632;2023-06-04T06:05:27;27.40;38.90
28530;DHT22;15737;49.760;6.632;2023-06-04T06:07:52;27.90;38.10
28530;DHT22;15737;49.760;6.632;2023-06-04T06:10:18;28.40;37.60
28530;DHT22;15737;49.760;6.632;2023-06-04T06:12:43;28.80;37.20
28530;DHT22;15737;49.760;6.632;2023-06-04T06:15:09;29.00;36.90
28530;DHT22;15737;49.760;6.632;2023-06-04T06:17:35;28.80;36.90
28530;DHT22;15737;49.760;6.632;2023-06-04T06:20:01;29.20;36.40
28530;DHT22;15737;49.760;6.632;2023-06-04T06:22:29;29.60;36.00
28530;DHT22;15737;49.760;6.632;2023-06-04T06:24:55;29.60;35.70
28530;DHT22;15737;49.760;6.632;2023-06-04T06:27:20;29.70;35.40
28530;DHT22;15737;49.760;6.632;2023-06-04T06:29:46;29.80;35.40
28530;DHT22;15737;49.760;6.632;2023-06-04T06:32:11;30.60;34.60
28530;DHT22;15737;49.760;6.632;2023-06-04T06:34:37;30.90;34.20
28530;DHT22;15737;49.760;6.632;2023-06-04T06:37:03;30.20;34.40
28530;DHT22;15737;49.760;6.632;2023-06-04T06:39:29;30.10;34.50
28530;DHT22;15737;49.760;6.632;2023-06-04T06:41:54;30.40;34.20
28530;DHT22;15737;49.760;6.632;2023-06-04T06:44:20;30.60;33.80
28530;DHT22;15737;49.760;6.632;2023-06-04T06:46:46;30.30;33.90
28530;DHT22;15737;49.760;6.632;2023-06-04T06:49:12;29.90;34.20
28530;DHT22;15737;49.760;6.632;2023-06-04T06:51:37;30.40;33.80
28530;DHT22;15737;49.760;6.632;2023-06-04T06:54:03;30.20;33.60
28530;DHT22;15737;49.760;6.632;2023-06-04T06:56:29;30.20;33.60
28530;DHT22;15737;49.760;6.632;2023-06-04T06:58:55;30.60;33.40
28530;DHT22;15737;49.760;6.632;2023-06-04T07:01:21;31.10;32.60
28530;DHT22;15737;49.760;6.632;2023-06-04T07:03:46;31.10;32.70
28530;DHT22;15737;49.760;6.632;2023-06-04T07:06:12;31.10;32.60
28530;DHT22;15737;49.760;6.632;2023-06-04T07:08:38;31.20;32.30
28530;DHT22;15737;49.760;6.632;2023-06-04T07:11:04;31.00;32.40
28530;DHT22;15737;49.760;6.632;2023-06-04T07:13:30;31.50;32.20
28530;DHT22;15737;49.760;6.632;2023-06-04T07:15:58;32.20;31.60
28530;DHT22;15737;49.760;6.632;2023-06-04T07:18:24;33.00;31.10
28530;DHT22;15737;49.760;6.632;2023-06-04T07:20:49;33.50;30.70
28530;DHT22;15737;49.760;6.632;2023-06-04T07:23:18;34.50;30.00
28530;DHT22;15737;49.760;6.632;2023-06-04T07:25:43;34.80;29.70
28530;DHT22;15737;49.760;6.632;2023-06-04T07:28:08;34.90;29.60
28530;DHT22;15737;49.760;6.632;2023-06-04T07:30:34;34.90;29.60
28530;DHT22;15737;49.760;6.632;2023-06-04T07:33:01;35.40;29.40
28530;DHT22;15737;49.760;6.632;2023-06-04T07:35:26;36.60;28.80
28530;DHT22;15737;49.760;6.632;2023-06-04T07:37:52;36.90;28.50
28530;DHT22;15737;49.760;6.632;2023-06-04T07:40:17;36.70;28.60
28530;DHT22;15737;49.760;6.632;2023-06-04T07:42:45;36.90;28.60
28530;DHT22;15737;49.760;6.632;2023-06-04T07:45:10;37.90;28.20
28530;DHT22;15737;49.760;6.632;2023-06-04T07:47:36;38.30;27.90
28530;DHT22;15737;49.760;6.632;2023-06-04T07:50:05;38.00;27.90
28530;DHT22;15737;49.760;6.632;2023-06-04T07:52:31;37.10;28.20
28530;DHT22;15737;49.760;6.632;2023-06-04T07:54:57;36.20;28.50
28530;DHT22;15737;49.760;6.632;2023-06-04T07:57:23;36.20;28.60
28530;DHT22;15737;49.760;6.632;2023-06-04T07:59:49;36.90;28.40
28530;DHT22;15737;49.760;6.632;2023-06-04T08:02:15;38.10;27.90
28530;DHT22;15737;49.760;6.632;2023-06-04T08:04:41;38.90;27.40
28530;DHT22;15737;49.760;6.632;2023-06-04T08:07:06;39.00;27.30
28530;DHT22;15737;49.760;6.632;2023-06-04T08:09:32;38.80;27.30
28530;DHT22;15737;49.760;6.632;2023-06-04T08:11:57;38.70;27.20
28530;DHT22;15737;49.760;6.632;2023-06-04T08:14:23;38.80;27.10
28530;DHT22;15737;49.760;6.632;2023-06-04T08:16:52;39.10;27.00
28530;DHT22;15737;49.760;6.632;2023-06-04T08:19:17;39.40;26.70
28530;DHT22;15737;49.760;6.632;2023-06-04T08:21:43;39.50;26.80
28530;DHT22;15737;49.760;6.632;2023-06-04T08:24:10;40.10;26.40
28530;DHT22;15737;49.760;6.632;2023-06-04T08:26:35;40.10;26.40
28530;DHT22;15737;49.760;6.632;2023-06-04T08:29:03;39.50;26.50
28530;DHT22;15737;49.760;6.632;2023-06-04T08:31:29;38.20;27.00
28530;DHT22;15737;49.760;6.632;2023-06-04T08:33:55;38.70;26.80
28530;DHT22;15737;49.760;6.632;2023-06-04T08:36:20;39.30;26.70
28530;DHT22;15737;49.760;6.632;2023-06-04T08:38:46;39.60;26.40
28530;DHT22;15737;49.760;6.632;2023-06-04T08:41:20;39.30;26.40
28530;DHT22;15737;49.760;6.632;2023-06-04T08:43:48;39.20;26.50
28530;DHT22;15737;49.760;6.632;2023-06-04T08:46:15;39.10;26.80
28530;DHT22;15737;49.760;6.632;2023-06-04T08:48:42;38.50;26.50
28530;DHT22;15737;49.760;6.632;2023-06-04T08:51:09;37.10;27.50
28530;DHT22;15737;49.760;6.632;2023-06-04T08:53:36;38.00;27.10
28530;DHT22;15737;49.760;6.632;2023-06-04T08:56:02;39.00;26.60
28530;DHT22;15737;49.760;6.632;2023-06-04T08:58:31;39.40;26.60
28530;DHT22;15737;49.760;6.632;2023-06-04T09:01:00;39.70;26.20
28530;DHT22;15737;49.760;6.632;2023-06-04T09:03:26;39.10;26.60
28530;DHT22;15737;49.760;6.632;2023-06-04T09:05:52;38.70;26.80
28530;DHT22;15737;49.760;6.632;2023-06-04T09:08:19;38.50;26.80
28530;DHT22;15737;49.760;6.632;2023-06-04T09:10:46;38.00;27.20
28530;DHT22;15737;49.760;6.632;2023-06-04T09:13:17;38.70;27.00
28530;DHT22;15737;49.760;6.632;2023-06-04T09:15:44;39.80;26.40
28530;DHT22;15737;49.760;6.632;2023-06-04T09:18:09;40.00;26.50
28530;DHT22;15737;49.760;6.632;2023-06-04T09:20:35;39.80;26.50
28530;DHT22;15737;49.760;6.632;2023-06-04T09:23:00;39.30;26.80
28530;DHT22;15737;49.760;6.632;2023-06-04T09:25:27;39.00;27.50
28530;DHT22;15737;49.760;6.632;2023-06-04T09:27:54;39.20;27.20
28530;DHT22;15737;49.760;6.632;2023-06-04T09:30:21;39.60;27.00
28530;DHT22;15737;49.760;6.632;2023-06-04T09:32:47;40.50;26.60
28530;DHT22;15737;49.760;6.632;2023-06-04T09:35:16;40.50;26.60
28530;DHT22;15737;49.760;6.632;2023-06-04T09:37:51;40.40;26.70
28530;DHT22;15737;49.760;6.632;2023-06-04T09:40:17;40.20;26.90
28530;DHT22;15737;49.760;6.632;2023-06-04T09:42:47;39.20;27.20
28530;DHT22;15737;49.760;6.632;2023-06-04T09:45:29;38.20;27.70
28530;DHT22;15737;49.760;6.632;2023-06-04T09:47:57;38.80;27.70
28530;DHT22;15737;49.760;6.632;2023-06-04T09:50:26;38.80;27.70
28530;DHT22;15737;49.760;6.632;2023-06-04T09:52:53;38.70;27.80
28530;DHT22;15737;49.760;6.632;2023-06-04T09:55:19;39.20;27.50
28530;DHT22;15737;49.760;6.632;2023-06-04T09:57:50;38.40;27.90
28530;DHT22;15737;49.760;6.632;2023-06-04T10:00:20;38.00;28.20
28530;DHT22;15737;49.760;6.632;2023-06-04T10:02:51;37.50;28.40
28530;DHT22;15737;49.760;6.632;2023-06-04T10:05:19;36.80;28.90
28530;DHT22;15737;49.760;6.632;2023-06-04T10:07:47;37.60;28.60
28530;DHT22;15737;49.760;6.632;2023-06-04T10:10:17;36.90;28.80
28530;DHT22;15737;49.760;6.632;2023-06-04T10:12:43;37.10;28.90
28530;DHT22;15737;49.760;6.632;2023-06-04T10:15:13;37.60;28.70
28530;DHT22;15737;49.760;6.632;2023-06-04T10:17:39;36.90;28.80
28530;DHT22;15737;49.760;6.632;2023-06-04T10:20:10;36.40;29.10
28530;DHT22;15737;49.760;6.632;2023-06-04T10:22:38;35.80;29.40
28530;DHT22;15737;49.760;6.632;2023-06-04T10:25:04;35.80;29.70
28530;DHT22;15737;49.760;6.632;2023-06-04T10:27:31;35.70;29.60
28530;DHT22;15737;49.760;6.632;2023-06-04T10:29:57;35.40;29.80
28530;DHT22;15737;49.760;6.632;2023-06-04T10:32:27;35.30;29.80
28530;DHT22;15737;49.760;6.632;2023-06-04T10:34:53;35.40;29.60
28530;DHT22;15737;49.760;6.632;2023-06-04T10:37:20;35.00;30.00
28530;DHT22;15737;49.760;6.632;2023-06-04T10:39:54;34.60;30.10
28530;DHT22;15737;49.760;6.632;2023-06-04T10:42:21;34.20;30.60
28530;DHT22;15737;49.760;6.632;2023-06-04T10:44:50;34.00;30.70
28530;DHT22;15737;49.760;6.632;2023-06-04T10:47:24;33.60;31.10
28530;DHT22;15737;49.760;6.632;2023-06-04T10:49:54;33.60;31.40
28530;DHT22;15737;49.760;6.632;2023-06-04T10:52:21;34.30;30.50
28530;DHT22;15737;49.760;6.632;2023-06-04T10:54:47;34.20;30.80
28530;DHT22;15737;49.760;6.632;2023-06-04T10:57:19;34.60;30.80
28530;DHT22;15737;49.760;6.632;2023-06-04T10:59:58;35.40;30.00
28530;DHT22;15737;49.760;6.632;2023-06-04T11:02:24;34.70;30.10
28530;DHT22;15737;49.760;6.632;2023-06-04T11:05:04;34.40;30.60
28530;DHT22;15737;49.760;6.632;2023-06-04T11:07:44;34.90;30.70
28530;DHT22;15737;49.760;6.632;2023-06-04T11:10:11;34.80;30.40
28530;DHT22;15737;49.760;6.632;2023-06-04T11:12:49;34.30;30.50
28530;DHT22;15737;49.760;6.632;2023-06-04T11:15:18;34.40;30.50
28530;DHT22;15737;49.760;6.632;2023-06-04T11:17:57;33.70;30.70
28530;DHT22;15737;49.760;6.632;2023-06-04T11:20:23;32.80;31.50
28530;DHT22;15737;49.760;6.632;2023-06-04T11:22:55;33.00;31.70
28530;DHT22;15737;49.760;6.632;2023-06-04T11:25:22;33.80;31.20
28530;DHT22;15737;49.760;6.632;2023-06-04T11:27:49;34.30;30.60
28530;DHT22;15737;49.760;6.632;2023-06-04T11:30:15;34.80;30.00
28530;DHT22;15737;49.760;6.632;2023-06-04T11:32:41;34.30;30.00
28530;DHT22;15737;49.760;6.632;2023-06-04T11:35:07;32.90;29.90
28530;DHT22;15737;49.760;6.632;2023-06-04T11:37:33;32.10;31.30
28530;DHT22;15737;49.760;6.632;2023-06-04T11:39:59;32.60;31.50
28530;DHT22;15737;49.760;6.632;2023-06-04T11:42:27;33.10;30.90
28530;DHT22;15737;49.760;6.632;2023-06-04T11:44:59;33.30;30.90
28530;DHT22;15737;49.760;6.632;2023-06-04T11:47:25;33.80;30.50
28530;DHT22;15737;49.760;6.632;2023-06-04T11:49:54;33.70;30.40
28530;DHT22;15737;49.760;6.632;2023-06-04T11:52:21;33.90;30.40
28530;DHT22;15737;49.760;6.632;2023-06-04T11:54:47;33.90;30.30
28530;DHT22;15737;49.760;6.632;2023-06-04T11:57:13;33.80;30.30
28530;DHT22;15737;49.760;6.632;2023-06-04T11:59:39;34.00;30.30
28530;DHT22;15737;49.760;6.632;2023-06-04T12:02:07;33.60;29.80
28530;DHT22;15737;49.760;6.632;2023-06-04T12:04:32;32.90;30.60
28530;DHT22;15737;49.760;6.632;2023-06-04T12:07:00;32.70;30.30
28530;DHT22;15737;49.760;6.632;2023-06-04T12:09:31;32.20;30.80
28530;DHT22;15737;49.760;6.632;2023-06-04T12:12:02;31.80;30.80
28530;DHT22;15737;49.760;6.632;2023-06-04T12:14:28;31.50;31.40
28530;DHT22;15737;49.760;6.632;2023-06-04T12:17:05;32.00;31.30
28530;DHT22;15737;49.760;6.632;2023-06-04T12:19:31;32.20;30.80
28530;DHT22;15737;49.760;6.632;2023-06-04T12:22:01;32.00;30.90
28530;DHT22;15737;49.760;6.632;2023-06-04T12:24:29;32.00;30.80
28530;DHT22;15737;49.760;6.632;2023-06-04T12:27:03;32.00;31.00
28530;DHT22;15737;49.760;6.632;2023-06-04T12:29:29;32.30;31.30
28530;DHT22;15737;49.760;6.632;2023-06-04T12:32:09;32.50;30.90
28530;DHT22;15737;49.760;6.632;2023-06-04T12:34:37;32.80;30.80
28530;DHT22;15737;49.760;6.632;2023-06-04T12:37:03;33.20;30.60
28530;DHT22;15737;49.760;6.632;2023-06-04T12:39:31;33.80;30.30
28530;DHT22;15737;49.760;6.632;2023-06-04T12:41:57;33.90;29.80
28530;DHT22;15737;49.760;6.632;2023-06-04T12:44:22;32.80;30.00
28530;DHT22;15737;49.760;6.632;2023-06-04T12:46:48;31.50;30.30
28530;DHT22;15737;49.760;6.632;2023-06-04T12:49:13;30.20;30.70
28530;DHT22;15737;49.760;6.632;2023-06-04T12:51:39;29.20;31.90
28530;DHT22;15737;49.760;6.632;2023-06-04T12:54:05;29.60;32.30
28530;DHT22;15737;49.760;6.632;2023-06-04T12:56:30;30.50;31.80
28530;DHT22;15737;49.760;6.632;2023-06-04T12:58:56;31.60;31.40
28530;DHT22;15737;49.760;6.632;2023-06-04T13:01:22;32.70;30.60
28530;DHT22;15737;49.760;6.632;2023-06-04T13:03:47;32.90;30.20
28530;DHT22;15737;49.760;6.632;2023-06-04T13:06:13;32.50;30.10
28530;DHT22;15737;49.760;6.632;2023-06-04T13:08:38;32.00;30.80
28530;DHT22;15737;49.760;6.632;2023-06-04T13:11:04;32.20;31.20
28530;DHT22;15737;49.760;6.632;2023-06-04T13:13:30;32.20;30.80
28530;DHT22;15737;49.760;6.632;2023-06-04T13:15:56;31.90;31.00
28530;DHT22;15737;49.760;6.632;2023-06-04T13:18:22;32.10;30.90
28530;DHT22;15737;49.760;6.632;2023-06-04T13:20:48;32.50;30.70
28530;DHT22;15737;49.760;6.632;2023-06-04T13:23:14;32.80;30.20
28530;DHT22;15737;49.760;6.632;2023-06-04T13:25:40;32.50;30.60
28530;DHT22;15737;49.760;6.632;2023-06-04T13:28:06;32.60;31.00
28530;DHT22;15737;49.760;6.632;2023-06-04T13:30:34;33.00;30.80
28530;DHT22;15737;49.760;6.632;2023-06-04T13:33:00;32.80;30.60
28530;DHT22;15737;49.760;6.632;2023-06-04T13:35:26;32.50;30.80
28530;DHT22;15737;49.760;6.632;2023-06-04T13:37:52;32.10;31.00
28530;DHT22;15737;49.760;6.632;2023-06-04T13:40:17;32.30;31.00
28530;DHT22;15737;49.760;6.632;2023-06-04T13:42:43;32.50;30.80
28530;DHT22;15737;49.760;6.632;2023-06-04T13:45:09;32.20;30.80
28530;DHT22;15737;49.760;6.632;2023-06-04T13:47:35;31.90;31.30
28530;DHT22;15737;49.760;6.632;2023-06-04T13:50:00;32.10;31.30
28530;DHT22;15737;49.760;6.632;2023-06-04T13:52:26;32.50;31.30
28530;DHT22;15737;49.760;6.632;2023-06-04T13:54:54;32.60;31.00
28530;DHT22;15737;49.760;6.632;2023-06-04T13:57:20;32.70;31.10
28530;DHT22;15737;49.760;6.632;2023-06-04T13:59:45;32.60;31.00
28530;DHT22;15737;49.760;6.632;2023-06-04T14:02:11;32.20;31.10
28530;DHT22;15737;49.760;6.632;2023-06-04T14:04:36;32.00;31.60
28530;DHT22;15737;49.760;6.632;2023-06-04T14:07:02;31.70;31.60
28530;DHT22;15737;49.760;6.632;2023-06-04T14:09:27;31.30;32.00
28530;DHT22;15737;49.760;6.632;2023-06-04T14:11:53;31.80;31.90
28530;DHT22;15737;49.760;6.632;2023-06-04T14:14:20;32.30;31.70
28530;DHT22;15737;49.760;6.632;2023-06-04T14:16:49;32.20;31.80
28530;DHT22;15737;49.760;6.632;2023-06-04T14:19:14;32.40;31.70
28530;DHT22;15737;49.760;6.632;2023-06-04T14:21:43;32.10;31.80
28530;DHT22;15737;49.760;6.632;2023-06-04T14:24:09;31.60;32.10
28530;DHT22;15737;49.760;6.632;2023-06-04T14:26:35;30.90;32.30
28530;DHT22;15737;49.760;6.632;2023-06-04T14:29:01;30.30;32.80
28530;DHT22;15737;49.760;6.632;2023-06-04T14:31:27;30.30;33.20
28530;DHT22;15737;49.760;6.632;2023-06-04T14:33:53;30.50;33.00
28530;DHT22;15737;49.760;6.632;2023-06-04T14:36:18;30.10;33.20
28530;DHT22;15737;49.760;6.632;2023-06-04T14:38:44;30.10;33.30
28530;DHT22;15737;49.760;6.632;2023-06-04T14:41:10;30.20;33.40
28530;DHT22;15737;49.760;6.632;2023-06-04T14:43:36;30.40;33.20
28530;DHT22;15737;49.760;6.632;2023-06-04T14:46:01;30.70;33.00
28530;DHT22;15737;49.760;6.632;2023-06-04T14:48:27;30.60;32.90
28530;DHT22;15737;49.760;6.632;2023-06-04T14:50:52;30.30;33.10
28530;DHT22;15737;49.760;6.632;2023-06-04T14:53:19;30.50;33.00
28530;DHT22;15737;49.760;6.632;2023-06-04T14:55:45;30.90;32.80
28530;DHT22;15737;49.760;6.632;2023-06-04T14:58:14;30.80;32.60
28530;DHT22;15737;49.760;6.632;2023-06-04T15:00:41;30.30;32.70
28530;DHT22;15737;49.760;6.632;2023-06-04T15:03:06;30.10;33.10
28530;DHT22;15737;49.760;6.632;2023-06-04T15:05:32;29.80;33.00
28530;DHT22;15737;49.760;6.632;2023-06-04T15:07:58;29.70;33.30
28530;DHT22;15737;49.760;6.632;2023-06-04T15:10:24;29.60;33.30
28530;DHT22;15737;49.760;6.632;2023-06-04T15:12:50;29.50;33.40
28530;DHT22;15737;49.760;6.632;2023-06-04T15:15:15;29.20;33.70
28530;DHT22;15737;49.760;6.632;2023-06-04T15:17:41;28.90;34.20
28530;DHT22;15737;49.760;6.632;2023-06-04T15:20:07;29.00;34.30
28530;DHT22;15737;49.760;6.632;2023-06-04T15:22:33;29.20;34.00
28530;DHT22;15737;49.760;6.632;2023-06-04T15:24:59;29.30;33.70
28530;DHT22;15737;49.760;6.632;2023-06-04T15:27:24;28.90;34.10
28530;DHT22;15737;49.760;6.632;2023-06-04T15:29:50;28.80;34.10
28530;DHT22;15737;49.760;6.632;2023-06-04T15:32:17;28.80;34.40